sensor_id;sensor_type;location;lat;lon;timestamp;temperature;humidity
17887;DHT22;9069;52.044;7.472;2022-10-17T00:00:14;17.20;98.90
17887;DHT22;9069;52.044;7.472;2022-10-17T00:02:40;17.20;99.00
17887;DHT22;9069;52.044;7.472;2022-10-17T00:05:07;17.20;99.10
17887;DHT22;9069;52.044;7.472;2022-10-17T00:07:34;17.20;99.10
17887;DHT22;9069;52.044;7.472;2022-10-17T00:10:00;17.20;99.20
17887;DHT22;9069;52.044;7.472;2022-10-17T00:12:27;17.20;99.20
17887;DHT22;9069;52.044;7.472;2022-10-17T00:14:54;17.20;99.20
17887;DHT22;9069;52.044;7.472;2022-10-17T00:17:20;17.30;99.30
17887;DHT22;9069;52.044;7.472;2022-10-17T00:19:47;17.30;99.30
17887;DHT22;9069;52.044;7.472;2022-10-17T00:22:14;17.30;99.30
17887;DHT22;9069;52.044;7.472;2022-10-17T00:24:40;17.30;99.20
17887;DHT22;9069;52.044;7.472;2022-10-17T00:27:07;17.30;99.20
17887;DHT22;9069;52.044;7.472;2022-10-17T00:29:34;17.30;99.20
17887;DHT22;9069;52.044;7.472;2022-10-17T00:32:00;17.30;99.20
17887;DHT22;9069;52.044;7.472;2022-10-17T00:34:28;17.30;99.20
17887;DHT22;9069;52.044;7.472;2022-10-17T00:36:56;17.30;99.30
17887;DHT22;9069;52.044;7.472;2022-10-17T00:39:23;17.30;99.30
17887;DHT22;9069;52.044;7.472;2022-10-17T00:41:50;17.30;99.30
17887;DHT22;9069;52.044;7.472;2022-10-17T00:47:02;17.30;99.40
17887;DHT22;9069;52.044;7.472;2022-10-17T00:49:32;17.30;99.30
17887;DHT22;9069;52.044;7.472;2022-10-17T00:52:02;17.30;99.30
17887;DHT22;9069;52.044;7.472;2022-10-17T00:54:33;17.30;99.30
17887;DHT22;9069;52.044;7.472;2022-10-17T00:57:03;17.30;99.20
17887;DHT22;9069;52.044;7.472;2022-10-17T00:59:32;17.30;99.20
17887;DHT22;9069;52.044;7.472;2022-10-17T01:02:03;17.30;99.30
17887;DHT22;9069;52.044;7.472;2022-10-17T01:04:30;17.30;99.30
17887;DHT22;9069;52.044;7.472;2022-10-17T01:06:57;17.30;99.30
17887;DHT22;9069;52.044;7.472;2022-10-17T01:09:25;17.30;99.30
17887;DHT22;9069;52.044;7.472;2022-10-17T01:15:26;17.30;99.30
17887;DHT22;9069;52.044;7.472;2022-10-17T01:21:08;17.40;99.40
17887;DHT22;9069;52.044;7.472;2022-10-17T01:32:46;17.40;99.60
17887;DHT22;9069;52.044;7.472;2022-10-17T01:35:25;17.40;99.80
17887;DHT22;9069;52.044;7.472;2022-10-17T01:38:09;17.40;99.90
17887;DHT22;9069;52.044;7.472;2022-10-17T01:40:43;17.40;99.90
17887;DHT22;9069;52.044;7.472;2022-10-17T01:43:25;17.40;99.90
17887;DHT22;9069;52.044;7.472;2022-10-17T01:46:12;17.50;99.90
17887;DHT22;9069;52.044;7.472;2022-10-17T01:48:43;17.40;99.90
17887;DHT22;9069;52.044;7.472;2022-10-17T01:51:16;17.50;99.90
17887;DHT22;9069;52.044;7.472;2022-10-17T01:54:04;17.50;99.90
17887;DHT22;9069;52.044;7.472;2022-10-17T01:56:34;17.50;99.90
17887;DHT22;9069;52.044;7.472;2022-10-17T01:59:12;17.60;99.90
17887;DHT22;9069;52.044;7.472;2022-10-17T02:01:41;17.60;99.90
17887;DHT22;9069;52.044;7.472;2022-10-17T02:04:10;17.60;99.90
17887;DHT22;9069;52.044;7.472;2022-10-17T02:06:37;17.60;99.90
17887;DHT22;9069;52.044;7.472;2022-10-17T02:09:25;17.60;99.90
17887;DHT22;9069;52.044;7.472;2022-10-17T02:17:40;17.70;99.90
17887;DHT22;9069;52.044;7.472;2022-10-17T02:20:19;17.70;99.90
17887;DHT22;9069;52.044;7.472;2022-10-17T02:23:01;17.70;99.90
17887;DHT22;9069;52.044;7.472;2022-10-17T02:29:14;17.80;99.90
17887;DHT22;9069;52.044;7.472;2022-10-17T02:31:35;17.80;99.90
17887;DHT22;9069;52.044;7.472;2022-10-17T02:34:19;17.80;99.90
17887;DHT22;9069;52.044;7.472;2022-10-17T02:36:51;17.80;99.90
17887;DHT22;9069;52.044;7.472;2022-10-17T02:39:21;17.80;99.90
17887;DHT22;9069;52.044;7.472;2022-10-17T02:41:50;17.80;99.90
17887;DHT22;9069;52.044;7.472;2022-10-17T02:44:18;17.80;99.90
17887;DHT22;9069;52.044;7.472;2022-10-17T02:46:51;17.80;99.90
17887;DHT22;9069;52.044;7.472;2022-10-17T02:49:24;17.80;99.90
17887;DHT22;9069;52.044;7.472;2022-10-17T02:52:13;17.80;99.90
17887;DHT22;9069;52.044;7.472;2022-10-17T02:55:21;17.80;99.90
17887;DHT22;9069;52.044;7.472;2022-10-17T02:57:52;17.90;99.90
17887;DHT22;9069;52.044;7.472;2022-10-17T03:00:21;17.90;99.90
17887;DHT22;9069;52.044;7.472;2022-10-17T03:02:50;17.90;99.90
17887;DHT22;9069;52.044;7.472;2022-10-17T03:05:20;17.90;99.90
17887;DHT22;9069;52.044;7.472;2022-10-17T03:07:47;17.90;99.90
17887;DHT22;9069;52.044;7.472;2022-10-17T03:10:14;17.90;99.90
17887;DHT22;9069;52.044;7.472;2022-10-17T03:12:41;18.00;99.80
17887;DHT22;9069;52.044;7.472;2022-10-17T03:15:09;18.00;99.80
17887;DHT22;9069;52.044;7.472;2022-10-17T03:17:37;18.00;99.80
17887;DHT22;9069;52.044;7.472;2022-10-17T03:20:05;18.00;99.80
17887;DHT22;9069;52.044;7.472;2022-10-17T03:22:32;18.00;99.80
17887;DHT22;9069;52.044;7.472;2022-10-17T03:25:02;18.00;99.80
17887;DHT22;9069;52.044;7.472;2022-10-17T03:27:28;18.00;99.70
17887;DHT22;9069;52.044;7.472;2022-10-17T03:29:55;18.00;99.60
17887;DHT22;9069;52.044;7.472;2022-10-17T03:32:22;18.00;99.60
17887;DHT22;9069;52.044;7.472;2022-10-17T03:34:49;18.00;99.60
17887;DHT22;9069;52.044;7.472;2022-10-17T03:37:16;18.00;99.50
17887;DHT22;9069;52.044;7.472;2022-10-17T03:39:43;18.00;99.50
17887;DHT22;9069;52.044;7.472;2022-10-17T03:42:10;18.00;99.50
17887;DHT22;9069;52.044;7.472;2022-10-17T03:44:37;18.00;99.50
17887;DHT22;9069;52.044;7.472;2022-10-17T03:47:03;18.00;99.50
17887;DHT22;9069;52.044;7.472;2022-10-17T03:49:30;18.00;99.40
17887;DHT22;9069;52.044;7.472;2022-10-17T03:51:57;18.00;99.40
17887;DHT22;9069;52.044;7.472;2022-10-17T03:54:23;18.00;99.40
17887;DHT22;9069;52.044;7.472;2022-10-17T03:56:51;18.00;99.40
17887;DHT22;9069;52.044;7.472;2022-10-17T03:59:18;18.00;99.30
17887;DHT22;9069;52.044;7.472;2022-10-17T04:01:54;18.00;99.30
17887;DHT22;9069;52.044;7.472;2022-10-17T04:04:21;18.00;99.40
17887;DHT22;9069;52.044;7.472;2022-10-17T04:06:49;18.00;99.20
17887;DHT22;9069;52.044;7.472;2022-10-17T04:09:15;18.00;99.20
17887;DHT22;9069;52.044;7.472;2022-10-17T04:11:51;18.00;99.20
17887;DHT22;9069;52.044;7.472;2022-10-17T04:14:19;18.00;99.10
17887;DHT22;9069;52.044;7.472;2022-10-17T04:16:46;18.00;99.10
17887;DHT22;9069;52.044;7.472;2022-10-17T04:19:17;18.00;99.10
17887;DHT22;9069;52.044;7.472;2022-10-17T04:21:45;18.00;99.10
17887;DHT22;9069;52.044;7.472;2022-10-17T04:24:13;18.00;99.10
17887;DHT22;9069;52.044;7.472;2022-10-17T04:26:58;18.00;99.10
17887;DHT22;9069;52.044;7.472;2022-10-17T04:29:28;18.00;99.10
17887;DHT22;9069;52.044;7.472;2022-10-17T04:32:04;18.00;99.10
17887;DHT22;9069;52.044;7.472;2022-10-17T04:34:51;18.00;99.10
17887;DHT22;9069;52.044;7.472;2022-10-17T04:37:20;18.00;99.10
17887;DHT22;9069;52.044;7.472;2022-10-17T04:39:49;18.00;99.20
17887;DHT22;9069;52.044;7.472;2022-10-17T04:42:15;18.00;99.30
17887;DHT22;9069;52.044;7.472;2022-10-17T04:44:42;18.00;99.30
17887;DHT22;9069;52.044;7.472;2022-10-17T04:47:09;18.00;99.30
17887;DHT22;9069;52.044;7.472;2022-10-17T04:49:37;18.00;99.30
17887;DHT22;9069;52.044;7.472;2022-10-17T04:52:09;18.00;99.30
17887;DHT22;9069;52.044;7.472;2022-10-17T04:54:38;18.00;99.30
17887;DHT22;9069;52.044;7.472;2022-10-17T04:57:08;18.00;99.30
17887;DHT22;9069;52.044;7.472;2022-10-17T04:59:35;18.00;99.40
17887;DHT22;9069;52.044;7.472;2022-10-17T05:02:22;18.10;99.40
17887;DHT22;9069;52.044;7.472;2022-10-17T05:04:49;18.10;99.40
17887;DHT22;9069;52.044;7.472;2022-10-17T05:07:16;18.10;99.40
17887;DHT22;9069;52.044;7.472;2022-10-17T05:10:00;18.10;99.40
17887;DHT22;9069;52.044;7.472;2022-10-17T05:12:28;18.10;99.40
17887;DHT22;9069;52.044;7.472;2022-10-17T05:14:55;18.10;99.30
17887;DHT22;9069;52.044;7.472;2022-10-17T05:17:24;18.10;99.30
17887;DHT22;9069;52.044;7.472;2022-10-17T05:19:51;18.20;99.40
17887;DHT22;9069;52.044;7.472;2022-10-17T05:22:17;18.20;99.40
17887;DHT22;9069;52.044;7.472;2022-10-17T05:24:44;18.20;99.40
17887;DHT22;9069;52.044;7.472;2022-10-17T05:27:12;18.20;99.30
17887;DHT22;9069;52.044;7.472;2022-10-17T05:29:39;18.20;99.30
17887;DHT22;9069;52.044;7.472;2022-10-17T05:32:16;18.20;99.40
17887;DHT22;9069;52.044;7.472;2022-10-17T05:34:43;18.20;99.40
17887;DHT22;9069;52.044;7.472;2022-10-17T05:37:10;18.20;99.40
17887;DHT22;9069;52.044;7.472;2022-10-17T05:39:38;18.20;99.40
17887;DHT22;9069;52.044;7.472;2022-10-17T05:42:06;18.20;99.40
17887;DHT22;9069;52.044;7.472;2022-10-17T05:44:33;18.30;99.40
17887;DHT22;9069;52.044;7.472;2022-10-17T05:47:00;18.20;99.40
17887;DHT22;9069;52.044;7.472;2022-10-17T05:49:27;18.20;99.30
17887;DHT22;9069;52.044;7.472;2022-10-17T05:52:14;18.30;99.40
17887;DHT22;9069;52.044;7.472;2022-10-17T05:54:55;18.30;99.30
17887;DHT22;9069;52.044;7.472;2022-10-17T05:57:24;18.30;99.20
17887;DHT22;9069;52.044;7.472;2022-10-17T05:59:51;18.30;99.30
17887;DHT22;9069;52.044;7.472;2022-10-17T06:02:19;18.30;99.20
17887;DHT22;9069;52.044;7.472;2022-10-17T06:04:47;18.30;99.30
17887;DHT22;9069;52.044;7.472;2022-10-17T06:07:16;18.30;99.20
17887;DHT22;9069;52.044;7.472;2022-10-17T06:09:43;18.30;99.30
17887;DHT22;9069;52.044;7.472;2022-10-17T06:12:11;18.30;99.30
17887;DHT22;9069;52.044;7.472;2022-10-17T06:14:39;18.30;99.20
17887;DHT22;9069;52.044;7.472;2022-10-17T06:17:06;18.30;99.30
17887;DHT22;9069;52.044;7.472;2022-10-17T06:19:39;18.30;99.40
17887;DHT22;9069;52.044;7.472;2022-10-17T06:22:07;18.30;99.40
17887;DHT22;9069;52.044;7.472;2022-10-17T06:24:34;18.30;99.40
17887;DHT22;9069;52.044;7.472;2022-10-17T06:27:03;18.30;99.40
17887;DHT22;9069;52.044;7.472;2022-10-17T06:29:37;18.40;99.80
17887;DHT22;9069;52.044;7.472;2022-10-17T06:32:06;18.40;99.50
17887;DHT22;9069;52.044;7.472;2022-10-17T06:34:38;18.40;99.50
17887;DHT22;9069;52.044;7.472;2022-10-17T06:37:05;18.40;99.50
17887;DHT22;9069;52.044;7.472;2022-10-17T06:39:37;18.40;99.50
17887;DHT22;9069;52.044;7.472;2022-10-17T06:42:08;18.50;99.60
17887;DHT22;9069;52.044;7.472;2022-10-17T06:44:58;18.50;99.60
17887;DHT22;9069;52.044;7.472;2022-10-17T06:47:39;18.50;99.50
17887;DHT22;9069;52.044;7.472;2022-10-17T06:50:25;18.50;99.50
17887;DHT22;9069;52.044;7.472;2022-10-17T06:53:14;18.60;99.60
17887;DHT22;9069;52.044;7.472;2022-10-17T06:55:43;18.60;99.60
17887;DHT22;9069;52.044;7.472;2022-10-17T06:58:27;18.60;99.60
17887;DHT22;9069;52.044;7.472;2022-10-17T07:01:06;18.70;99.60
17887;DHT22;9069;52.044;7.472;2022-10-17T07:03:34;18.70;99.60
17887;DHT22;9069;52.044;7.472;2022-10-17T07:06:01;18.70;99.60
17887;DHT22;9069;52.044;7.472;2022-10-17T07:08:28;18.80;99.70
17887;DHT22;9069;52.044;7.472;2022-10-17T07:10:55;18.80;99.70
17887;DHT22;9069;52.044;7.472;2022-10-17T07:13:22;18.90;99.70
17887;DHT22;9069;52.044;7.472;2022-10-17T07:15:49;18.90;99.70
17887;DHT22;9069;52.044;7.472;2022-10-17T07:18:17;18.90;99.70
17887;DHT22;9069;52.044;7.472;2022-10-17T07:20:52;19.00;99.70
17887;DHT22;9069;52.044;7.472;2022-10-17T07:23:19;19.00;99.60
17887;DHT22;9069;52.044;7.472;2022-10-17T07:25:47;19.10;99.60
17887;DHT22;9069;52.044;7.472;2022-10-17T07:28:15;19.10;99.60
17887;DHT22;9069;52.044;7.472;2022-10-17T07:30:42;19.10;99.60
17887;DHT22;9069;52.044;7.472;2022-10-17T07:33:11;19.20;99.60
17887;DHT22;9069;52.044;7.472;2022-10-17T07:35:38;19.30;99.60
17887;DHT22;9069;52.044;7.472;2022-10-17T07:38:09;19.30;99.50
17887;DHT22;9069;52.044;7.472;2022-10-17T07:40:36;19.40;99.50
17887;DHT22;9069;52.044;7.472;2022-10-17T07:43:03;19.40;99.50
17887;DHT22;9069;52.044;7.472;2022-10-17T07:45:30;19.50;99.50
17887;DHT22;9069;52.044;7.472;2022-10-17T07:47:57;19.50;99.50
17887;DHT22;9069;52.044;7.472;2022-10-17T07:50:24;19.60;99.60
17887;DHT22;9069;52.044;7.472;2022-10-17T07:52:51;19.60;99.60
17887;DHT22;9069;52.044;7.472;2022-10-17T07:55:17;19.70;99.60
17887;DHT22;9069;52.044;7.472;2022-10-17T07:57:44;19.70;99.60
17887;DHT22;9069;52.044;7.472;2022-10-17T08:00:11;19.90;99.80
17887;DHT22;9069;52.044;7.472;2022-10-17T08:02:38;19.90;99.80
17887;DHT22;9069;52.044;7.472;2022-10-17T08:05:05;20.10;99.80
17887;DHT22;9069;52.044;7.472;2022-10-17T08:07:32;20.20;99.80
17887;DHT22;9069;52.044;7.472;2022-10-17T08:09:58;20.30;99.80
17887;DHT22;9069;52.044;7.472;2022-10-17T08:12:25;20.40;99.80
17887;DHT22;9069;52.044;7.472;2022-10-17T08:14:52;20.50;99.80
17887;DHT22;9069;52.044;7.472;2022-10-17T08:17:19;20.70;99.90
17887;DHT22;9069;52.044;7.472;2022-10-17T08:19:45;20.80;99.80
17887;DHT22;9069;52.044;7.472;2022-10-17T08:22:12;21.00;99.70
17887;DHT22;9069;52.044;7.472;2022-10-17T08:24:39;21.20;99.50
17887;DHT22;9069;52.044;7.472;2022-10-17T08:27:05;21.30;99.20
17887;DHT22;9069;52.044;7.472;2022-10-17T08:29:38;21.40;98.90
17887;DHT22;9069;52.044;7.472;2022-10-17T08:32:05;21.50;98.60
17887;DHT22;9069;52.044;7.472;2022-10-17T08:34:35;21.60;98.40
17887;DHT22;9069;52.044;7.472;2022-10-17T08:37:02;21.70;98.20
17887;DHT22;9069;52.044;7.472;2022-10-17T08:39:29;21.80;98.10
17887;DHT22;9069;52.044;7.472;2022-10-17T08:47:28;22.00;97.20
17887;DHT22;9069;52.044;7.472;2022-10-17T08:50:02;22.10;97.00
17887;DHT22;9069;52.044;7.472;2022-10-17T08:52:51;22.10;97.20
17887;DHT22;9069;52.044;7.472;2022-10-17T08:55:35;22.10;96.80
17887;DHT22;9069;52.044;7.472;2022-10-17T09:15:26;22.50;97.30
17887;DHT22;9069;52.044;7.472;2022-10-17T09:17:59;22.60;97.60
17887;DHT22;9069;52.044;7.472;2022-10-17T09:20:31;22.80;97.90
17887;DHT22;9069;52.044;7.472;2022-10-17T09:23:03;22.90;97.80
17887;DHT22;9069;52.044;7.472;2022-10-17T09:25:43;23.10;97.50
17887;DHT22;9069;52.044;7.472;2022-10-17T09:28:22;23.20;96.70
17887;DHT22;9069;52.044;7.472;2022-10-17T09:31:44;23.40;96.40
17887;DHT22;9069;52.044;7.472;2022-10-17T09:33:51;23.50;96.20
17887;DHT22;9069;52.044;7.472;2022-10-17T09:36:39;23.60;96.50
17887;DHT22;9069;52.044;7.472;2022-10-17T09:39:22;23.70;95.80
17887;DHT22;9069;52.044;7.472;2022-10-17T09:41:53;23.80;95.60
17887;DHT22;9069;52.044;7.472;2022-10-17T09:49:38;23.90;95.30
17887;DHT22;9069;52.044;7.472;2022-10-17T09:52:12;23.90;95.50
17887;DHT22;9069;52.044;7.472;2022-10-17T09:54:52;23.90;95.30
17887;DHT22;9069;52.044;7.472;2022-10-17T09:57:20;24.00;95.30
17887;DHT22;9069;52.044;7.472;2022-10-17T10:00:00;24.00;96.10
17887;DHT22;9069;52.044;7.472;2022-10-17T10:02:29;24.20;95.90
17887;DHT22;9069;52.044;7.472;2022-10-17T10:05:13;24.30;96.10
17887;DHT22;9069;52.044;7.472;2022-10-17T10:08:02;24.50;95.90
17887;DHT22;9069;52.044;7.472;2022-10-17T10:10:30;24.60;94.80
17887;DHT22;9069;52.044;7.472;2022-10-17T10:15:40;24.80;94.50
17887;DHT22;9069;52.044;7.472;2022-10-17T10:21:07;24.90;93.70
17887;DHT22;9069;52.044;7.472;2022-10-17T10:23:35;24.90;93.60
17887;DHT22;9069;52.044;7.472;2022-10-17T10:28:54;24.80;93.10
17887;DHT22;9069;52.044;7.472;2022-10-17T10:31:29;24.70;93.20
17887;DHT22;9069;52.044;7.472;2022-10-17T10:33:59;24.70;93.20
17887;DHT22;9069;52.044;7.472;2022-10-17T10:36:45;24.70;93.30
17887;DHT22;9069;52.044;7.472;2022-10-17T10:41:56;24.60;92.80
17887;DHT22;9069;52.044;7.472;2022-10-17T10:44:25;24.40;93.20
17887;DHT22;9069;52.044;7.472;2022-10-17T10:47:17;24.40;93.10
17887;DHT22;9069;52.044;7.472;2022-10-17T10:49:44;24.30;92.70
17887;DHT22;9069;52.044;7.472;2022-10-17T10:52:31;24.20;93.00
17887;DHT22;9069;52.044;7.472;2022-10-17T10:55:15;24.20;92.80
17887;DHT22;9069;52.044;7.472;2022-10-17T10:57:44;24.00;92.70
17887;DHT22;9069;52.044;7.472;2022-10-17T11:00:16;24.00;93.10
17887;DHT22;9069;52.044;7.472;2022-10-17T11:03:12;23.90;93.00
17887;DHT22;9069;52.044;7.472;2022-10-17T11:08:19;23.80;93.00
17887;DHT22;9069;52.044;7.472;2022-10-17T11:11:29;23.70;92.80
17887;DHT22;9069;52.044;7.472;2022-10-17T11:14:18;23.60;92.70
17887;DHT22;9069;52.044;7.472;2022-10-17T11:19:35;23.40;92.90
17887;DHT22;9069;52.044;7.472;2022-10-17T11:22:15;23.40;93.30
17887;DHT22;9069;52.044;7.472;2022-10-17T11:24:48;23.30;93.30
17887;DHT22;9069;52.044;7.472;2022-10-17T11:27:23;23.30;93.50
17887;DHT22;9069;52.044;7.472;2022-10-17T11:29:50;23.30;93.80
17887;DHT22;9069;52.044;7.472;2022-10-17T11:32:33;23.30;93.90
17887;DHT22;9069;52.044;7.472;2022-10-17T11:35:29;23.30;93.70
17887;DHT22;9069;52.044;7.472;2022-10-17T11:38:03;23.30;93.90
17887;DHT22;9069;52.044;7.472;2022-10-17T11:40:34;23.30;93.90
17887;DHT22;9069;52.044;7.472;2022-10-17T11:43:15;23.30;93.90
17887;DHT22;9069;52.044;7.472;2022-10-17T11:45:49;23.30;93.70
17887;DHT22;9069;52.044;7.472;2022-10-17T11:48:26;23.30;93.90
17887;DHT22;9069;52.044;7.472;2022-10-17T11:51:09;23.30;94.00
17887;DHT22;9069;52.044;7.472;2022-10-17T11:54:03;23.30;94.00
17887;DHT22;9069;52.044;7.472;2022-10-17T12:07:44;23.30;94.50
17887;DHT22;9069;52.044;7.472;2022-10-17T12:10:18;23.30;94.50
17887;DHT22;9069;52.044;7.472;2022-10-17T12:12:47;23.30;94.50
17887;DHT22;9069;52.044;7.472;2022-10-17T12:17:58;23.20;94.40
17887;DHT22;9069;52.044;7.472;2022-10-17T12:20:35;23.20;94.40
17887;DHT22;9069;52.044;7.472;2022-10-17T12:26:00;23.10;94.50
17887;DHT22;9069;52.044;7.472;2022-10-17T12:31:20;23.00;94.70
17887;DHT22;9069;52.044;7.472;2022-10-17T12:33:50;23.10;95.00
17887;DHT22;9069;52.044;7.472;2022-10-17T12:41:52;23.10;95.00
17887;DHT22;9069;52.044;7.472;2022-10-17T12:57:50;23.00;95.00
17887;DHT22;9069;52.044;7.472;2022-10-17T13:00:33;23.00;95.00
17887;DHT22;9069;52.044;7.472;2022-10-17T13:03:25;23.00;95.00
17887;DHT22;9069;52.044;7.472;2022-10-17T13:05:59;22.90;95.00
17887;DHT22;9069;52.044;7.472;2022-10-17T13:08:31;22.90;95.00
17887;DHT22;9069;52.044;7.472;2022-10-17T13:10:58;22.90;95.00
17887;DHT22;9069;52.044;7.472;2022-10-17T13:13:49;22.90;95.10
17887;DHT22;9069;52.044;7.472;2022-10-17T13:16:36;22.80;95.10
17887;DHT22;9069;52.044;7.472;2022-10-17T13:19:13;22.80;95.00
17887;DHT22;9069;52.044;7.472;2022-10-17T13:21:52;22.80;95.00
17887;DHT22;9069;52.044;7.472;2022-10-17T13:24:36;22.80;95.10
17887;DHT22;9069;52.044;7.472;2022-10-17T13:27:04;22.80;95.10
17887;DHT22;9069;52.044;7.472;2022-10-17T13:29:32;22.80;95.10
17887;DHT22;9069;52.044;7.472;2022-10-17T13:32:00;22.80;95.10
17887;DHT22;9069;52.044;7.472;2022-10-17T13:34:27;22.80;95.20
17887;DHT22;9069;52.044;7.472;2022-10-17T13:36:58;22.70;95.20
17887;DHT22;9069;52.044;7.472;2022-10-17T13:39:29;22.70;95.30
17887;DHT22;9069;52.044;7.472;2022-10-17T13:42:24;22.70;95.40
17887;DHT22;9069;52.044;7.472;2022-10-17T13:44:53;22.70;95.40
17887;DHT22;9069;52.044;7.472;2022-10-17T13:47:26;22.70;95.40
17887;DHT22;9069;52.044;7.472;2022-10-17T13:49:53;22.60;95.40
17887;DHT22;9069;52.044;7.472;2022-10-17T13:52:24;22.60;95.40
17887;DHT22;9069;52.044;7.472;2022-10-17T13:54:53;22.60;95.40
17887;DHT22;9069;52.044;7.472;2022-10-17T13:57:23;22.60;95.40
17887;DHT22;9069;52.044;7.472;2022-10-17T13:59:59;22.60;95.30
17887;DHT22;9069;52.044;7.472;2022-10-17T14:02:28;22.50;95.50
17887;DHT22;9069;52.044;7.472;2022-10-17T14:07:49;22.50;95.60
17887;DHT22;9069;52.044;7.472;2022-10-17T14:10:38;22.50;95.70
17887;DHT22;9069;52.044;7.472;2022-10-17T14:13:06;22.40;95.70
17887;DHT22;9069;52.044;7.472;2022-10-17T14:15:35;22.40;95.70
17887;DHT22;9069;52.044;7.472;2022-10-17T14:18:04;22.40;95.70
17887;DHT22;9069;52.044;7.472;2022-10-17T14:20:34;22.40;95.70
17887;DHT22;9069;52.044;7.472;2022-10-17T14:23:29;22.40;95.80
17887;DHT22;9069;52.044;7.472;2022-10-17T14:28:34;22.40;95.90
17887;DHT22;9069;52.044;7.472;2022-10-17T14:31:21;22.30;96.00
17887;DHT22;9069;52.044;7.472;2022-10-17T14:33:52;22.30;96.20
17887;DHT22;9069;52.044;7.472;2022-10-17T14:36:28;22.30;96.10
17887;DHT22;9069;52.044;7.472;2022-10-17T14:38:55;22.30;96.10
17887;DHT22;9069;52.044;7.472;2022-10-17T14:41:27;22.30;96.20
17887;DHT22;9069;52.044;7.472;2022-10-17T14:44:31;22.30;96.40
17887;DHT22;9069;52.044;7.472;2022-10-17T14:47:03;22.30;96.50
17887;DHT22;9069;52.044;7.472;2022-10-17T14:50:05;22.30;96.40
17887;DHT22;9069;52.044;7.472;2022-10-17T14:52:33;22.30;96.50
17887;DHT22;9069;52.044;7.472;2022-10-17T14:55:24;22.30;96.50
17887;DHT22;9069;52.044;7.472;2022-10-17T14:57:51;22.30;96.70
17887;DHT22;9069;52.044;7.472;2022-10-17T15:00:19;22.30;96.60
17887;DHT22;9069;52.044;7.472;2022-10-17T15:02:47;22.30;96.60
17887;DHT22;9069;52.044;7.472;2022-10-17T15:05:14;22.30;96.50
17887;DHT22;9069;52.044;7.472;2022-10-17T15:07:42;22.30;96.50
17887;DHT22;9069;52.044;7.472;2022-10-17T15:10:30;22.30;96.50
17887;DHT22;9069;52.044;7.472;2022-10-17T15:12:57;22.20;96.50
17887;DHT22;9069;52.044;7.472;2022-10-17T15:15:45;22.20;96.50
17887;DHT22;9069;52.044;7.472;2022-10-17T15:18:16;22.20;96.50
17887;DHT22;9069;52.044;7.472;2022-10-17T15:20:43;22.20;96.50
17887;DHT22;9069;52.044;7.472;2022-10-17T15:23:09;22.20;96.50
17887;DHT22;9069;52.044;7.472;2022-10-17T15:25:36;22.20;96.50
17887;DHT22;9069;52.044;7.472;2022-10-17T15:28:04;22.20;96.50
17887;DHT22;9069;52.044;7.472;2022-10-17T15:30:33;22.20;96.50
17887;DHT22;9069;52.044;7.472;2022-10-17T15:33:00;22.20;96.50
17887;DHT22;9069;52.044;7.472;2022-10-17T15:35:28;22.10;96.50
17887;DHT22;9069;52.044;7.472;2022-10-17T15:37:54;22.10;96.50
17887;DHT22;9069;52.044;7.472;2022-10-17T15:40:24;22.10;96.60
17887;DHT22;9069;52.044;7.472;2022-10-17T15:42:51;22.10;96.60
17887;DHT22;9069;52.044;7.472;2022-10-17T15:45:19;22.00;96.60
17887;DHT22;9069;52.044;7.472;2022-10-17T15:47:53;22.00;96.70
17887;DHT22;9069;52.044;7.472;2022-10-17T15:50:20;22.00;97.10
17887;DHT22;9069;52.044;7.472;2022-10-17T15:52:48;22.00;96.70
17887;DHT22;9069;52.044;7.472;2022-10-17T15:55:17;22.00;96.80
17887;DHT22;9069;52.044;7.472;2022-10-17T15:57:45;21.90;96.80
17887;DHT22;9069;52.044;7.472;2022-10-17T16:00:16;21.90;96.90
17887;DHT22;9069;52.044;7.472;2022-10-17T16:02:44;21.90;97.00
17887;DHT22;9069;52.044;7.472;2022-10-17T16:05:14;21.90;96.90
17887;DHT22;9069;52.044;7.472;2022-10-17T16:07:44;21.90;97.00
17887;DHT22;9069;52.044;7.472;2022-10-17T16:10:13;21.90;97.10
17887;DHT22;9069;52.044;7.472;2022-10-17T16:12:40;21.80;97.00
17887;DHT22;9069;52.044;7.472;2022-10-17T16:15:18;21.90;97.10
17887;DHT22;9069;52.044;7.472;2022-10-17T16:17:48;21.80;97.10
17887;DHT22;9069;52.044;7.472;2022-10-17T16:20:15;21.80;97.10
17887;DHT22;9069;52.044;7.472;2022-10-17T16:22:43;21.80;97.10
17887;DHT22;9069;52.044;7.472;2022-10-17T16:25:21;21.80;97.10
17887;DHT22;9069;52.044;7.472;2022-10-17T16:27:50;21.80;97.20
17887;DHT22;9069;52.044;7.472;2022-10-17T16:30:18;21.70;97.10
17887;DHT22;9069;52.044;7.472;2022-10-17T16:32:45;21.70;97.10
17887;DHT22;9069;52.044;7.472;2022-10-17T16:35:23;21.70;97.40
17887;DHT22;9069;52.044;7.472;2022-10-17T16:37:50;21.70;97.10
17887;DHT22;9069;52.044;7.472;2022-10-17T16:40:17;21.70;97.10
17887;DHT22;9069;52.044;7.472;2022-10-17T16:42:44;21.70;97.10
17887;DHT22;9069;52.044;7.472;2022-10-17T16:45:19;21.60;97.10
17887;DHT22;9069;52.044;7.472;2022-10-17T16:47:46;21.60;97.10
17887;DHT22;9069;52.044;7.472;2022-10-17T16:50:14;21.60;97.10
17887;DHT22;9069;52.044;7.472;2022-10-17T16:52:41;21.60;97.10
17887;DHT22;9069;52.044;7.472;2022-10-17T16:55:08;21.60;97.10
17887;DHT22;9069;52.044;7.472;2022-10-17T16:57:35;21.60;97.10
17887;DHT22;9069;52.044;7.472;2022-10-17T17:00:03;21.60;97.20
17887;DHT22;9069;52.044;7.472;2022-10-17T17:02:30;21.50;97.10
17887;DHT22;9069;52.044;7.472;2022-10-17T17:04:57;21.50;97.10
17887;DHT22;9069;52.044;7.472;2022-10-17T17:07:24;21.50;97.10
17887;DHT22;9069;52.044;7.472;2022-10-17T17:09:50;21.50;97.10
17887;DHT22;9069;52.044;7.472;2022-10-17T17:12:19;21.50;97.10
17887;DHT22;9069;52.044;7.472;2022-10-17T17:14:45;21.50;97.10
17887;DHT22;9069;52.044;7.472;2022-10-17T17:17:12;21.50;97.00
17887;DHT22;9069;52.044;7.472;2022-10-17T17:19:56;21.50;97.00
17887;DHT22;9069;52.044;7.472;2022-10-17T17:22:22;21.40;97.00
17887;DHT22;9069;52.044;7.472;2022-10-17T17:24:49;21.40;97.00
17887;DHT22;9069;52.044;7.472;2022-10-17T17:27:16;21.50;97.00
17887;DHT22;9069;52.044;7.472;2022-10-17T17:29:42;21.40;97.00
17887;DHT22;9069;52.044;7.472;2022-10-17T17:32:09;21.40;97.00
17887;DHT22;9069;52.044;7.472;2022-10-17T17:34:36;21.40;97.00
17887;DHT22;9069;52.044;7.472;2022-10-17T17:37:03;21.40;96.90
17887;DHT22;9069;52.044;7.472;2022-10-17T17:39:30;21.40;96.90
17887;DHT22;9069;52.044;7.472;2022-10-17T17:41:57;21.40;96.90
17887;DHT22;9069;52.044;7.472;2022-10-17T17:44:23;21.40;96.90
17887;DHT22;9069;52.044;7.472;2022-10-17T17:46:50;21.30;96.80
17887;DHT22;9069;52.044;7.472;2022-10-17T17:49:17;21.30;96.80
17887;DHT22;9069;52.044;7.472;2022-10-17T17:51:43;21.30;96.80
17887;DHT22;9069;52.044;7.472;2022-10-17T17:54:12;21.30;96.70
17887;DHT22;9069;52.044;7.472;2022-10-17T17:56:38;21.30;96.70
17887;DHT22;9069;52.044;7.472;2022-10-17T17:59:05;21.30;96.70
17887;DHT22;9069;52.044;7.472;2022-10-17T18:01:33;21.30;96.60
17887;DHT22;9069;52.044;7.472;2022-10-17T18:04:06;21.20;96.60
17887;DHT22;9069;52.044;7.472;2022-10-17T18:06:35;21.20;96.50
17887;DHT22;9069;52.044;7.472;2022-10-17T18:09:02;21.20;96.50